Time;durP1;ratioP1;P1;durP2;ratioP2;P2;SDS_P1;SDS_P2;PMS_P1;PMS_P2;Temp;Humidity;BMP_temperature;BMP_pressure;BME280_temperature;BME280_humidity;BME280_pressure;Samples;Min_cycle;Max_cycle;Signal;HPM_P1;HPM_P2
2021/01/10 00:01:15;;;;;;;18.73;14.60;;;;;;;;;;4995029;28;20279;-94
2021/01/10 00:03:41;;;;;;;15.45;12.35;;;;;;;;;;4998351;28;20464;-93
2021/01/10 00:06:08;;;;;;;17.17;11.45;;;;;;;;;;4996372;28;20229;-94
2021/01/10 00:08:34;;;;;;;13.93;10.30;;;;;;;;;;4993303;28;20206;-94
2021/01/10 00:11:00;;;;;;;20.88;11.05;;;;;;;;;;4996681;28;20471;-93
2021/01/10 00:13:26;;;;;;;14.10;9.73;;;;;;;;;;4994040;28;20214;-95
2021/01/10 00:15:52;;;;;;;13.30;9.93;;;;;;;;;;4998183;28;20456;-94
2021/01/10 00:18:18;;;;;;;12.45;8.50;;;;;;;;;;4995879;28;20214;-93
2021/01/10 00:20:44;;;;;;;12.10;9.13;;;;;;;;;;5001149;28;20223;-93
2021/01/10 00:23:11;;;;;;;16.30;10.15;;;;;;;;;;5001594;28;20451;-93
2021/01/10 00:25:37;;;;;;;17.30;10.80;;;;;;;;;;5002449;28;20236;-93
2021/01/10 00:28:06;;;;;;;21.07;11.87;;;;;;;;;;5003192;28;20219;-95
2021/01/10 00:30:32;;;;;;;15.00;10.48;;;;;;;;;;4999969;28;20470;-94
2021/01/10 00:32:58;;;;;;;17.17;11.52;;;;;;;;;;5002829;28;20213;-93
2021/01/10 00:35:25;;;;;;;16.27;11.20;;;;;;;;;;4999422;28;20251;-94
2021/01/10 00:37:52;;;;;;;17.10;11.30;;;;;;;;;;5002442;28;20485;-94
2021/01/10 00:40:19;;;;;;;18.02;11.38;;;;;;;;;;4999614;28;20211;-95
2021/01/10 00:42:45;;;;;;;17.90;11.02;;;;;;;;;;5003131;28;20257;-93
2021/01/10 00:45:12;;;;;;;19.38;11.48;;;;;;;;;;5002261;28;20283;-94
2021/01/10 00:47:38;;;;;;;10.45;7.93;;;;;;;;;;5001164;28;20201;-93
2021/01/10 00:50:05;;;;;;;13.35;10.02;;;;;;;;;;5000083;28;20202;-94
2021/01/10 00:52:31;;;;;;;16.00;11.45;;;;;;;;;;4997659;28;20213;-94
2021/01/10 00:54:57;;;;;;;15.80;13.83;;;;;;;;;;5003627;28;20228;-94
2021/01/10 00:57:24;;;;;;;11.50;8.80;;;;;;;;;;4998452;28;20461;-93
2021/01/10 00:59:50;;;;;;;9.98;8.55;;;;;;;;;;5002044;28;20213;-93
2021/01/10 01:02:16;;;;;;;11.80;8.90;;;;;;;;;;5002378;28;20206;-94
2021/01/10 01:04:42;;;;;;;13.00;10.10;;;;;;;;;;4999427;28;20491;-93
2021/01/10 01:07:08;;;;;;;18.33;10.20;;;;;;;;;;5003242;28;20215;-93
2021/01/10 01:09:35;;;;;;;10.20;9.10;;;;;;;;;;4998902;28;20468;-93
2021/01/10 01:12:03;;;;;;;12.30;9.68;;;;;;;;;;5003015;28;20200;-94
2021/01/10 01:14:30;;;;;;;11.43;8.10;;;;;;;;;;4998939;28;20212;-93
2021/01/10 01:16:56;;;;;;;11.55;7.90;;;;;;;;;;5003287;28;20221;-94
2021/01/10 01:19:22;;;;;;;9.37;7.40;;;;;;;;;;4997881;28;20245;-93
2021/01/10 01:21:50;;;;;;;8.37;6.90;;;;;;;;;;5001111;28;20463;-93
2021/01/10 01:24:17;;;;;;;10.55;7.68;;;;;;;;;;5002384;28;20447;-93
2021/01/10 01:26:43;;;;;;;7.88;6.25;;;;;;;;;;4999878;28;20213;-93
2021/01/10 01:29:09;;;;;;;9.57;7.22;;;;;;;;;;5001882;28;20202;-93
2021/01/10 01:31:36;;;;;;;8.43;5.50;;;;;;;;;;4998868;28;20213;-94
2021/01/10 01:34:02;;;;;;;7.13;6.10;;;;;;;;;;5002016;28;20493;-93
2021/01/10 01:36:28;;;;;;;7.85;6.65;;;;;;;;;;4999457;28;20456;-93
2021/01/10 01:38:55;;;;;;;8.87;7.50;;;;;;;;;;5000719;28;20205;-93
2021/01/10 01:41:21;;;;;;;9.77;7.30;;;;;;;;;;4999851;28;20454;-93
2021/01/10 01:43:47;;;;;;;9.70;7.97;;;;;;;;;;5000987;28;20489;-93
2021/01/10 01:46:22;;;;;;;8.40;7.50;;;;;;;;;;5002905;28;20232;-93
2021/01/10 01:48:49;;;;;;;12.90;10.05;;;;;;;;;;4999724;28;21324;-93
2021/01/10 01:51:15;;;;;;;8.32;6.72;;;;;;;;;;5004604;28;20212;-93
2021/01/10 01:53:42;;;;;;;9.88;6.95;;;;;;;;;;5003016;28;20201;-93
2021/01/10 01:56:08;;;;;;;9.50;6.70;;;;;;;;;;5006117;28;20766;-92
2021/01/10 01:58:34;;;;;;;6.60;5.32;;;;;;;;;;5001248;28;20208;-92
2021/01/10 02:01:00;;;;;;;8.25;6.60;;;;;;;;;;5004605;28;20204;-93
2021/01/10 02:03:29;;;;;;;21.65;8.57;;;;;;;;;;5001459;28;20215;-93
2021/01/10 02:05:58;;;;;;;9.57;6.60;;;;;;;;;;5011307;28;20216;-93
2021/01/10 02:08:27;;;;;;;7.95;6.40;;;;;;;;;;5014620;28;20260;-93
2021/01/10 02:10:53;;;;;;;22.13;11.00;;;;;;;;;;5003072;28;20211;-93
2021/01/10 02:13:20;;;;;;;10.80;6.75;;;;;;;;;;5006596;28;20208;-93
2021/01/10 02:15:47;;;;;;;7.32;6.07;;;;;;;;;;5003111;28;20210;-93
2021/01/10 02:18:14;;;;;;;7.53;5.90;;;;;;;;;;5005061;28;20587;-92
2021/01/10 02:20:40;;;;;;;7.70;6.55;;;;;;;;;;5002477;28;20206;-93
2021/01/10 02:23:10;;;;;;;10.13;6.40;;;;;;;;;;5006425;28;20198;-93
2021/01/10 02:25:37;;;;;;;10.38;6.80;;;;;;;;;;5005023;28;20496;-92
2021/01/10 02:28:04;;;;;;;9.70;7.30;;;;;;;;;;5004522;28;20198;-93
2021/01/10 02:30:32;;;;;;;10.05;6.57;;;;;;;;;;5005916;28;20467;-92
2021/01/10 02:32:59;;;;;;;11.70;7.40;;;;;;;;;;5001935;28;20215;-93
2021/01/10 02:35:27;;;;;;;9.23;7.53;;;;;;;;;;5005953;28;20487;-93
2021/01/10 02:37:55;;;;;;;16.92;8.98;;;;;;;;;;5002779;28;20208;-94
2021/01/10 02:40:23;;;;;;;11.07;8.18;;;;;;;;;;5004027;28;20203;-94
2021/01/10 02:42:56;;;;;;;18.27;8.45;;;;;;;;;;4999712;28;20212;-93
2021/01/10 02:45:23;;;;;;;17.52;9.95;;;;;;;;;;5003030;28;20618;-93
2021/01/10 02:47:49;;;;;;;12.38;7.30;;;;;;;;;;5000096;28;20238;-95
2021/01/10 02:50:17;;;;;;;16.00;9.43;;;;;;;;;;5005058;28;20201;-95
2021/01/10 02:52:45;;;;;;;11.10;7.50;;;;;;;;;;5002615;28;20211;-95
2021/01/10 02:55:12;;;;;;;10.23;6.95;;;;;;;;;;5004293;28;20341;-95
2021/01/10 02:57:38;;;;;;;10.27;7.05;;;;;;;;;;5004972;28;20270;-95
2021/01/10 03:00:06;;;;;;;13.20;10.02;;;;;;;;;;5002138;28;20558;-95
2021/01/10 03:02:33;;;;;;;11.65;9.55;;;;;;;;;;5005805;28;20401;-94
2021/01/10 03:05:00;;;;;;;13.32;10.50;;;;;;;;;;5001593;28;20244;-94
2021/01/10 03:07:26;;;;;;;12.80;10.57;;;;;;;;;;5004130;28;20204;-95
2021/01/10 03:09:53;;;;;;;13.07;9.10;;;;;;;;;;5001644;28;20456;-96
2021/01/10 03:12:25;;;;;;;12.32;8.20;;;;;;;;;;5001709;28;20215;-96
2021/01/10 03:14:51;;;;;;;10.80;8.32;;;;;;;;;;4998398;28;20265;-96
2021/01/10 03:17:22;;;;;;;11.00;8.32;;;;;;;;;;4994375;28;20210;-96
2021/01/10 03:19:48;;;;;;;15.03;8.07;;;;;;;;;;4997015;28;20207;-96
2021/01/10 03:22:14;;;;;;;10.63;7.40;;;;;;;;;;4993971;28;20452;-96
2021/01/10 03:24:40;;;;;;;12.05;8.90;;;;;;;;;;4997587;28;20498;-96
2021/01/10 03:27:06;;;;;;;10.63;7.95;;;;;;;;;;5001360;28;20208;-95
2021/01/10 03:29:32;;;;;;;9.97;7.70;;;;;;;;;;5000947;28;20209;-96
2021/01/10 03:31:58;;;;;;;11.88;9.27;;;;;;;;;;4996872;28;20515;-96
2021/01/10 03:34:25;;;;;;;12.80;9.10;;;;;;;;;;5001336;28;20232;-96
2021/01/10 03:36:51;;;;;;;11.83;8.60;;;;;;;;;;5000612;28;20461;-95
2021/01/10 03:39:17;;;;;;;13.48;9.15;;;;;;;;;;5002514;28;20449;-95
2021/01/10 03:41:43;;;;;;;12.90;9.87;;;;;;;;;;4985802;28;20206;-96
2021/01/10 03:44:09;;;;;;;11.00;8.60;;;;;;;;;;4996404;28;20541;-96
2021/01/10 03:46:35;;;;;;;15.03;9.50;;;;;;;;;;5004311;28;20491;-95
2021/01/10 03:49:01;;;;;;;15.47;10.03;;;;;;;;;;5001970;28;20475;-95
2021/01/10 03:51:28;;;;;;;15.43;9.52;;;;;;;;;;5004931;28;20457;-96
2021/01/10 03:53:54;;;;;;;13.18;9.00;;;;;;;;;;5002149;28;20591;-96
2021/01/10 03:56:20;;;;;;;10.88;8.02;;;;;;;;;;5004225;28;20208;-95
2021/01/10 03:58:46;;;;;;;13.70;9.00;;;;;;;;;;5001515;28;20219;-95
2021/01/10 04:01:12;;;;;;;10.23;8.50;;;;;;;;;;5002275;28;20493;-95
2021/01/10 04:03:38;;;;;;;12.53;8.80;;;;;;;;;;5004192;28;20464;-94
2021/01/10 04:06:04;;;;;;;11.63;8.52;;;;;;;;;;5001510;28;20542;-94
2021/01/10 04:08:31;;;;;;;11.10;8.30;;;;;;;;;;5003777;28;20209;-94
2021/01/10 04:10:57;;;;;;;13.13;8.13;;;;;;;;;;5000872;28;20464;-95
2021/01/10 04:13:23;;;;;;;12.07;9.00;;;;;;;;;;5002848;28;20210;-95
2021/01/10 04:15:49;;;;;;;15.68;10.27;;;;;;;;;;5000694;28;20467;-95
2021/01/10 04:18:15;;;;;;;14.35;10.50;;;;;;;;;;5003518;28;20207;-94
2021/01/10 04:20:41;;;;;;;16.52;11.70;;;;;;;;;;5003166;28;20202;-94
2021/01/10 04:23:07;;;;;;;18.25;12.20;;;;;;;;;;5000252;28;20219;-93
2021/01/10 04:25:34;;;;;;;16.92;9.98;;;;;;;;;;5002347;28;20260;-94
2021/01/10 04:28:00;;;;;;;14.17;9.93;;;;;;;;;;4999723;28;20198;-95
2021/01/10 04:30:26;;;;;;;12.53;8.80;;;;;;;;;;5003304;28;20465;-94
2021/01/10 04:32:52;;;;;;;12.10;9.15;;;;;;;;;;5001126;28;20518;-93
2021/01/10 04:35:18;;;;;;;13.32;9.43;;;;;;;;;;5002159;28;20240;-94
2021/01/10 04:37:44;;;;;;;13.77;10.03;;;;;;;;;;5000002;28;20212;-94
2021/01/10 04:40:10;;;;;;;19.73;13.10;;;;;;;;;;5003557;28;20447;-95
2021/01/10 04:42:37;;;;;;;45.75;29.27;;;;;;;;;;5002861;28;20559;-95
2021/01/10 04:45:04;;;;;;;46.75;29.60;;;;;;;;;;5001437;28;20237;-94
2021/01/10 04:47:30;;;;;;;19.30;14.20;;;;;;;;;;5008032;28;20186;-95
2021/01/10 04:49:57;;;;;;;18.63;12.55;;;;;;;;;;5013199;28;20192;-95
2021/01/10 04:52:24;;;;;;;12.00;10.47;;;;;;;;;;5005177;28;20201;-95
2021/01/10 04:54:51;;;;;;;12.45;8.70;;;;;;;;;;5000926;28;20469;-95
2021/01/10 04:57:19;;;;;;;16.85;9.63;;;;;;;;;;5003182;28;20273;-95
2021/01/10 04:59:46;;;;;;;16.85;10.38;;;;;;;;;;4999564;28;20209;-94
2021/01/10 05:02:13;;;;;;;16.65;11.25;;;;;;;;;;5002501;28;20205;-95
2021/01/10 05:04:39;;;;;;;15.40;10.98;;;;;;;;;;5001308;28;20193;-95
2021/01/10 05:07:05;;;;;;;17.20;11.40;;;;;;;;;;5000486;28;20209;-96
2021/01/10 05:09:32;;;;;;;18.90;12.10;;;;;;;;;;5000536;28;20215;-96
2021/01/10 05:11:58;;;;;;;20.48;13.50;;;;;;;;;;4998015;28;20228;-95
2021/01/10 05:14:24;;;;;;;15.50;9.65;;;;;;;;;;5002837;28;20197;-95
2021/01/10 05:16:51;;;;;;;14.70;11.05;;;;;;;;;;4999856;28;20212;-95
2021/01/10 05:19:19;;;;;;;17.00;12.40;;;;;;;;;;5003081;28;20200;-95
2021/01/10 05:21:45;;;;;;;16.63;12.43;;;;;;;;;;5000031;28;20259;-95
2021/01/10 05:24:16;;;;;;;12.30;9.02;;;;;;;;;;5001860;28;20213;-96
2021/01/10 05:26:42;;;;;;;17.70;9.75;;;;;;;;;;5000063;28;20232;-94
2021/01/10 05:29:08;;;;;;;14.50;10.38;;;;;;;;;;5000239;28;20680;-95
2021/01/10 05:31:35;;;;;;;13.80;9.65;;;;;;;;;;5000413;28;20821;-94
2021/01/10 05:34:03;;;;;;;14.43;10.57;;;;;;;;;;4998898;28;20205;-94
2021/01/10 05:36:30;;;;;;;12.50;9.98;;;;;;;;;;5002449;28;20209;-94
2021/01/10 05:38:56;;;;;;;10.80;9.68;;;;;;;;;;4999495;28;20208;-94
2021/01/10 05:41:23;;;;;;;11.60;8.57;;;;;;;;;;5002502;28;20216;-94
2021/01/10 05:44:02;;;;;;;10.75;8.48;;;;;;;;;;4997547;28;20215;-94
2021/01/10 05:46:30;;;;;;;12.23;9.90;;;;;;;;;;5000989;28;20227;-94
2021/01/10 05:48:56;;;;;;;12.70;10.63;;;;;;;;;;4997839;28;20231;-94
2021/01/10 05:51:27;;;;;;;16.00;11.30;;;;;;;;;;4998292;28;20710;-95
2021/01/10 05:53:53;;;;;;;16.67;13.10;;;;;;;;;;5003756;28;20201;-94
2021/01/10 05:56:19;;;;;;;15.30;11.82;;;;;;;;;;4999630;28;20211;-94
2021/01/10 05:58:46;;;;;;;14.40;11.30;;;;;;;;;;5000874;28;20237;-94
2021/01/10 06:01:13;;;;;;;15.88;12.32;;;;;;;;;;4997012;28;20212;-94
2021/01/10 06:03:39;;;;;;;19.13;12.30;;;;;;;;;;5001246;28;20201;-95
2021/01/10 06:06:06;;;;;;;16.25;12.77;;;;;;;;;;4998621;28;20232;-93
2021/01/10 06:08:33;;;;;;;14.98;10.40;;;;;;;;;;5002441;28;20263;-93
2021/01/10 06:11:18;;;;;;;19.92;10.00;;;;;;;;;;4999579;28;20631;-94
2021/01/10 06:13:47;;;;;;;13.57;9.35;;;;;;;;;;5002540;28;20209;-94
2021/01/10 06:16:13;;;;;;;14.23;9.03;;;;;;;;;;5000371;28;20201;-95
2021/01/10 06:18:42;;;;;;;12.65;9.27;;;;;;;;;;5000634;28;20477;-94
2021/01/10 06:21:16;;;;;;;13.10;8.85;;;;;;;;;;5000089;28;20236;-95
2021/01/10 06:23:45;;;;;;;15.73;8.88;;;;;;;;;;4998811;28;20201;-95
2021/01/10 06:26:11;;;;;;;13.70;9.07;;;;;;;;;;5002607;28;20240;-96
2021/01/10 06:28:38;;;;;;;11.70;9.80;;;;;;;;;;4998979;28;20464;-95
2021/01/10 06:31:04;;;;;;;10.75;9.30;;;;;;;;;;5001344;28;20452;-94
2021/01/10 06:33:31;;;;;;;10.50;8.43;;;;;;;;;;4998689;28;20242;-95
2021/01/10 06:36:01;;;;;;;11.88;9.20;;;;;;;;;;5000945;28;20236;-94
2021/01/10 06:38:32;;;;;;;9.85;8.55;;;;;;;;;;5004434;28;20222;-94
2021/01/10 06:41:10;;;;;;;11.65;9.50;;;;;;;;;;5005393;28;20244;-93
2021/01/10 06:43:38;;;;;;;12.85;10.25;;;;;;;;;;5005126;28;20217;-94
2021/01/10 06:46:06;;;;;;;13.20;9.68;;;;;;;;;;5000474;28;20237;-93
2021/01/10 06:48:32;;;;;;;12.60;9.80;;;;;;;;;;5003760;28;20292;-94
2021/01/10 06:51:01;;;;;;;13.80;10.38;;;;;;;;;;5002106;28;20213;-94
2021/01/10 06:53:27;;;;;;;12.07;10.30;;;;;;;;;;5004186;28;20225;-94
2021/01/10 06:55:54;;;;;;;9.70;7.60;;;;;;;;;;5000919;28;21101;-93
2021/01/10 06:58:20;;;;;;;9.60;8.60;;;;;;;;;;5003515;28;20231;-94
2021/01/10 07:00:53;;;;;;;11.20;8.40;;;;;;;;;;5000839;28;20206;-93
2021/01/10 07:03:19;;;;;;;15.10;8.90;;;;;;;;;;5003805;28;20213;-92
2021/01/10 07:06:08;;;;;;;11.35;8.57;;;;;;;;;;5001132;28;20500;-93
2021/01/10 07:08:38;;;;;;;15.93;9.70;;;;;;;;;;5003661;28;20202;-94
2021/01/10 07:11:25;;;;;;;12.23;8.27;;;;;;;;;;5000126;28;21042;-95
2021/01/10 07:13:52;;;;;;;8.63;7.68;;;;;;;;;;4996462;28;20212;-93
2021/01/10 07:16:19;;;;;;;8.93;7.47;;;;;;;;;;5003675;28;20944;-94
2021/01/10 07:18:48;;;;;;;15.63;8.40;;;;;;;;;;5000904;28;20207;-93
2021/01/10 07:21:28;;;;;;;6.93;6.23;;;;;;;;;;5003748;28;20484;-93
2021/01/10 07:23:54;;;;;;;7.32;6.45;;;;;;;;;;5001526;28;20456;-93
2021/01/10 07:26:34;;;;;;;6.57;5.90;;;;;;;;;;5013785;28;20247;-92
2021/01/10 07:29:01;;;;;;;8.70;7.70;;;;;;;;;;5002426;28;20499;-94
2021/01/10 07:31:27;;;;;;;10.37;7.30;;;;;;;;;;5003418;28;20480;-94
2021/01/10 07:34:10;;;;;;;7.40;6.57;;;;;;;;;;5000779;28;20468;-93
2021/01/10 07:36:52;;;;;;;9.33;8.40;;;;;;;;;;5004214;28;20459;-94
2021/01/10 07:39:19;;;;;;;7.70;6.60;;;;;;;;;;4999607;28;20479;-93
2021/01/10 07:41:45;;;;;;;7.85;6.45;;;;;;;;;;5003186;28;20482;-94
2021/01/10 07:44:12;;;;;;;9.47;8.47;;;;;;;;;;5002129;28;20205;-93
2021/01/10 07:46:59;;;;;;;11.35;10.07;;;;;;;;;;5003001;28;20904;-93
2021/01/10 07:49:26;;;;;;;12.53;9.40;;;;;;;;;;4983402;28;20219;-93
2021/01/10 07:51:52;;;;;;;13.70;10.30;;;;;;;;;;4999359;28;20455;-91
2021/01/10 07:54:18;;;;;;;17.63;13.00;;;;;;;;;;5003497;28;20503;-93
2021/01/10 07:56:44;;;;;;;25.47;16.03;;;;;;;;;;5000333;28;20456;-94
2021/01/10 07:59:15;;;;;;;22.77;15.60;;;;;;;;;;5001233;28;20451;-95
2021/01/10 08:01:47;;;;;;;22.42;15.70;;;;;;;;;;4994198;28;20502;-93
2021/01/10 08:04:29;;;;;;;17.58;13.90;;;;;;;;;;5000295;28;20202;-92
2021/01/10 08:06:56;;;;;;;16.38;12.90;;;;;;;;;;5003312;28;20220;-93
2021/01/10 08:09:22;;;;;;;14.07;12.05;;;;;;;;;;4983149;28;20209;-93
2021/01/10 08:11:53;;;;;;;13.27;10.45;;;;;;;;;;4990703;28;20197;-93
2021/01/10 08:14:20;;;;;;;11.97;9.70;;;;;;;;;;5000343;28;20205;-93
2021/01/10 08:16:46;;;;;;;17.70;15.80;;;;;;;;;;5000881;28;20498;-93
2021/01/10 08:19:12;;;;;;;16.47;12.97;;;;;;;;;;4999656;28;20496;-93
2021/01/10 08:21:38;;;;;;;19.60;15.73;;;;;;;;;;4999717;28;20460;-93
2021/01/10 08:24:05;;;;;;;21.17;15.40;;;;;;;;;;5000265;28;20457;-93
2021/01/10 08:26:37;;;;;;;22.23;14.87;;;;;;;;;;5001815;28;20499;-93
2021/01/10 08:29:06;;;;;;;14.55;12.57;;;;;;;;;;4998525;28;20441;-94
2021/01/10 08:31:33;;;;;;;13.50;10.80;;;;;;;;;;5003583;28;20210;-94
2021/01/10 08:34:00;;;;;;;16.13;12.82;;;;;;;;;;4999662;28;20464;-94
2021/01/10 08:36:26;;;;;;;18.15;14.00;;;;;;;;;;5002548;28;20201;-95
2021/01/10 08:38:53;;;;;;;18.67;14.18;;;;;;;;;;5003702;28;20197;-93
2021/01/10 08:41:26;;;;;;;19.17;15.77;;;;;;;;;;4996452;28;20209;-95
2021/01/10 08:43:53;;;;;;;22.30;16.60;;;;;;;;;;5001506;28;20461;-95
2021/01/10 08:46:19;;;;;;;22.08;16.30;;;;;;;;;;4999190;28;20493;-94
2021/01/10 08:48:46;;;;;;;21.00;15.65;;;;;;;;;;5000278;28;20193;-95
2021/01/10 08:51:26;;;;;;;16.92;12.55;;;;;;;;;;4993094;28;20209;-94
2021/01/10 08:53:52;;;;;;;21.88;15.35;;;;;;;;;;4999431;28;20219;-95
2021/01/10 08:56:20;;;;;;;20.90;16.07;;;;;;;;;;4998868;28;20207;-93
2021/01/10 08:58:47;;;;;;;30.58;20.70;;;;;;;;;;5001230;28;20707;-93
2021/01/10 09:01:19;;;;;;;46.07;23.40;;;;;;;;;;4999617;28;20201;-95
2021/01/10 09:03:55;;;;;;;22.23;16.43;;;;;;;;;;5001756;28;20539;-95
2021/01/10 09:06:23;;;;;;;18.17;15.00;;;;;;;;;;5000691;28;20496;-95
2021/01/10 09:08:51;;;;;;;22.75;16.90;;;;;;;;;;4998427;28;20460;-94
2021/01/10 09:11:18;;;;;;;27.02;20.67;;;;;;;;;;5000892;28;20216;-93
2021/01/10 09:13:46;;;;;;;32.87;22.90;;;;;;;;;;4999106;28;20240;-94
2021/01/10 09:16:14;;;;;;;33.83;26.48;;;;;;;;;;5003180;28;20456;-93
2021/01/10 09:18:42;;;;;;;34.50;22.40;;;;;;;;;;4999308;28;20213;-94
2021/01/10 09:21:13;;;;;;;32.60;22.55;;;;;;;;;;5002746;28;20988;-95
2021/01/10 09:23:39;;;;;;;30.00;23.67;;;;;;;;;;4999592;28;20231;-94
2021/01/10 09:26:05;;;;;;;24.90;20.53;;;;;;;;;;5003344;28;20488;-94
2021/01/10 09:28:32;;;;;;;22.02;15.40;;;;;;;;;;5000728;28;20440;-95
2021/01/10 09:30:58;;;;;;;26.37;16.00;;;;;;;;;;4997703;28;20223;-94
2021/01/10 09:33:25;;;;;;;24.02;17.50;;;;;;;;;;5001519;28;20495;-94
2021/01/10 09:35:51;;;;;;;18.40;13.13;;;;;;;;;;4997557;28;20238;-94
2021/01/10 09:38:19;;;;;;;14.18;11.25;;;;;;;;;;5001845;28;20520;-93
2021/01/10 09:41:01;;;;;;;14.52;12.35;;;;;;;;;;4999813;28;20205;-96
2021/01/10 09:43:33;;;;;;;13.60;10.80;;;;;;;;;;5002965;28;20221;-95
2021/01/10 09:45:59;;;;;;;16.25;11.55;;;;;;;;;;4998767;28;20514;-93
2021/01/10 09:48:26;;;;;;;14.88;10.98;;;;;;;;;;5001310;28;20212;-94
2021/01/10 09:50:52;;;;;;;14.53;11.07;;;;;;;;;;4997787;28;20220;-93
2021/01/10 09:53:25;;;;;;;17.60;13.33;;;;;;;;;;5001613;28;20480;-94
2021/01/10 10:09:21;;;;;;;11.70;8.33;;;;;;;;;;5326132;23;20496;-96
2021/01/10 10:11:49;;;;;;;11.02;7.40;;;;;;;;;;5076461;28;20515;-96
2021/01/10 10:14:16;;;;;;;10.00;8.00;;;;;;;;;;5216342;23;20232;-96
2021/01/10 10:22:27;;;;;;;12.07;9.52;;;;;;;;;;5706795;23;20481;-96
2021/01/10 10:32:58;;;;;;;13.87;9.23;;;;;;;;;;4992794;28;20485;-96
2021/01/10 10:35:24;;;;;;;14.57;11.63;;;;;;;;;;4992168;28;20457;-96
2021/01/10 10:37:51;;;;;;;16.10;11.23;;;;;;;;;;4983190;28;20461;-96
2021/01/10 10:40:18;;;;;;;14.63;10.90;;;;;;;;;;4974471;28;20484;-94
2021/01/10 10:42:51;;;;;;;16.03;11.10;;;;;;;;;;4985296;28;20470;-96
2021/01/10 10:45:18;;;;;;;12.20;10.07;;;;;;;;;;5068499;23;20507;-96
2021/01/10 10:47:45;;;;;;;15.90;10.60;;;;;;;;;;5020842;28;20483;-95
2021/01/10 10:53:09;;;;;;;5.90;4.87;;;;;;;;;;5023135;28;20451;-96
2021/01/10 10:55:36;;;;;;;10.80;6.20;;;;;;;;;;5077072;23;20529;-96
2021/01/10 11:00:28;;;;;;;6.47;4.60;;;;;;;;;;5112259;23;20491;-95
2021/01/10 11:02:54;;;;;;;7.97;5.03;;;;;;;;;;5027308;28;20208;-95
2021/01/10 11:05:22;;;;;;;6.60;4.93;;;;;;;;;;5010573;28;20518;-96
2021/01/10 11:10:49;;;;;;;5.10;4.60;;;;;;;;;;5044026;23;20579;-94
2021/01/10 11:13:15;;;;;;;5.53;4.73;;;;;;;;;;5023166;28;20455;-96
2021/01/10 11:15:41;;;;;;;5.83;4.90;;;;;;;;;;5023075;28;20464;-95
2021/01/10 11:18:08;;;;;;;7.70;5.47;;;;;;;;;;5025704;28;20475;-96
2021/01/10 11:20:35;;;;;;;5.27;4.70;;;;;;;;;;5024418;28;20484;-96
2021/01/10 11:23:02;;;;;;;6.40;5.40;;;;;;;;;;5025587;28;20502;-96
2021/01/10 11:25:28;;;;;;;10.02;7.35;;;;;;;;;;5025753;28;20482;-96
2021/01/10 11:27:55;;;;;;;11.80;7.80;;;;;;;;;;5027067;28;20193;-95
2021/01/10 11:30:21;;;;;;;23.38;12.82;;;;;;;;;;5024789;28;20908;-96
2021/01/10 11:32:48;;;;;;;12.63;10.10;;;;;;;;;;5021503;28;20215;-96
2021/01/10 11:35:14;;;;;;;9.27;7.83;;;;;;;;;;5018475;28;20525;-95
2021/01/10 11:37:41;;;;;;;16.20;13.70;;;;;;;;;;5004939;28;20452;-96
2021/01/10 11:40:08;;;;;;;24.73;19.10;;;;;;;;;;5016792;28;20943;-95
2021/01/10 11:42:34;;;;;;;31.90;23.03;;;;;;;;;;5020854;28;20460;-96
2021/01/10 11:45:00;;;;;;;36.63;26.60;;;;;;;;;;5021933;28;20455;-96
2021/01/10 11:47:27;;;;;;;22.23;15.80;;;;;;;;;;5025194;28;20483;-96
2021/01/10 11:49:53;;;;;;;31.57;19.60;;;;;;;;;;5045485;23;20492;-96
2021/01/10 11:52:31;;;;;;;21.83;17.23;;;;;;;;;;5015712;28;20476;-96
2021/01/10 11:54:59;;;;;;;21.57;16.30;;;;;;;;;;4996235;28;20459;-96
2021/01/10 11:57:25;;;;;;;26.80;19.90;;;;;;;;;;5004516;28;20456;-94
2021/01/10 11:59:52;;;;;;;42.80;29.60;;;;;;;;;;5003173;28;20483;-95
2021/01/10 12:02:18;;;;;;;43.33;32.20;;;;;;;;;;4988547;28;20518;-96
2021/01/10 12:04:44;;;;;;;42.53;30.20;;;;;;;;;;4993271;28;20481;-95
2021/01/10 12:07:11;;;;;;;49.00;35.13;;;;;;;;;;4997556;28;20235;-96
2021/01/10 12:09:38;;;;;;;48.50;34.60;;;;;;;;;;5004531;28;20453;-96
2021/01/10 12:14:59;;;;;;;49.50;34.87;;;;;;;;;;4986004;28;20481;-96
2021/01/10 12:17:26;;;;;;;45.65;32.00;;;;;;;;;;5006165;28;20488;-96
2021/01/10 12:19:52;;;;;;;34.38;24.88;;;;;;;;;;5008847;28;20279;-96
2021/01/10 12:22:32;;;;;;;30.93;22.70;;;;;;;;;;5005179;28;20273;-95
2021/01/10 12:24:59;;;;;;;29.63;21.20;;;;;;;;;;5013736;28;20626;-96
2021/01/10 12:27:26;;;;;;;29.90;21.57;;;;;;;;;;4990006;28;20557;-96
2021/01/10 12:29:53;;;;;;;32.33;21.00;;;;;;;;;;5007549;28;20441;-96
2021/01/10 12:32:20;;;;;;;24.73;18.42;;;;;;;;;;5008743;28;20453;-96
2021/01/10 12:34:46;;;;;;;28.40;21.30;;;;;;;;;;5002399;28;20214;-96
2021/01/10 12:37:12;;;;;;;30.40;22.05;;;;;;;;;;5003073;28;20212;-96
2021/01/10 12:39:38;;;;;;;24.27;20.08;;;;;;;;;;5010752;28;20185;-96
2021/01/10 12:44:50;;;;;;;34.65;23.77;;;;;;;;;;5012201;28;20320;-96
2021/01/10 12:47:16;;;;;;;33.45;23.40;;;;;;;;;;5007462;28;20228;-96
2021/01/10 12:50:10;;;;;;;31.63;23.80;;;;;;;;;;5010903;28;20237;-96
2021/01/10 12:52:37;;;;;;;30.90;21.33;;;;;;;;;;5004444;28;20728;-95
2021/01/10 12:55:03;;;;;;;28.08;20.83;;;;;;;;;;5001512;28;20452;-96
2021/01/10 12:57:41;;;;;;;27.17;19.00;;;;;;;;;;5013400;28;20201;-96
2021/01/10 13:03:13;;;;;;;30.20;19.90;;;;;;;;;;5009681;28;20201;-95
2021/01/10 13:05:40;;;;;;;34.05;22.15;;;;;;;;;;5009530;28;20219;-96
2021/01/10 13:08:06;;;;;;;38.03;26.42;;;;;;;;;;5018056;23;20242;-95
2021/01/10 13:10:34;;;;;;;44.10;28.15;;;;;;;;;;4994499;28;20671;-96
2021/01/10 13:13:15;;;;;;;34.75;23.48;;;;;;;;;;4998664;28;20181;-96
2021/01/10 13:16:12;;;;;;;40.17;26.38;;;;;;;;;;5006518;28;20303;-96
2021/01/10 13:18:39;;;;;;;37.67;26.52;;;;;;;;;;5014030;28;20211;-96
2021/01/10 13:21:07;;;;;;;32.08;22.33;;;;;;;;;;5000527;28;20182;-96
2021/01/10 13:23:34;;;;;;;23.58;17.77;;;;;;;;;;4999098;28;20195;-96
2021/01/10 13:26:04;;;;;;;19.17;15.23;;;;;;;;;;5012564;28;20213;-96
2021/01/10 13:28:30;;;;;;;19.80;14.25;;;;;;;;;;5006819;28;20205;-96
2021/01/10 13:30:59;;;;;;;16.05;12.60;;;;;;;;;;5002949;28;20451;-96
2021/01/10 13:33:27;;;;;;;17.15;13.50;;;;;;;;;;5009672;28;20281;-96
2021/01/10 13:38:51;;;;;;;20.63;15.47;;;;;;;;;;5003660;28;20543;-96
2021/01/10 13:41:17;;;;;;;30.10;21.20;;;;;;;;;;4999280;28;20466;-94
2021/01/10 13:43:44;;;;;;;27.05;19.67;;;;;;;;;;5000439;28;20198;-95
2021/01/10 13:46:11;;;;;;;25.42;19.80;;;;;;;;;;5005662;28;20247;-96
2021/01/10 13:48:38;;;;;;;30.35;19.65;;;;;;;;;;5003050;28;20211;-96
2021/01/10 13:51:08;;;;;;;33.42;21.88;;;;;;;;;;5003225;28;20202;-96
2021/01/10 13:53:34;;;;;;;35.83;24.63;;;;;;;;;;5003708;28;20203;-95
2021/01/10 13:56:01;;;;;;;26.73;20.20;;;;;;;;;;5004531;28;20230;-96
2021/01/10 13:58:32;;;;;;;26.63;18.52;;;;;;;;;;5008559;28;20212;-96
2021/01/10 14:00:59;;;;;;;28.88;18.08;;;;;;;;;;5018633;28;20214;-96
2021/01/10 14:03:31;;;;;;;30.52;23.08;;;;;;;;;;5020152;28;20184;-96
2021/01/10 14:06:01;;;;;;;21.73;16.50;;;;;;;;;;5015112;28;20723;-96
2021/01/10 14:08:27;;;;;;;27.60;21.80;;;;;;;;;;5029329;23;20558;-96
2021/01/10 14:10:53;;;;;;;28.67;19.75;;;;;;;;;;5038450;28;20461;-96
2021/01/10 14:13:20;;;;;;;22.77;16.98;;;;;;;;;;5033406;28;20231;-96
2021/01/10 14:15:46;;;;;;;24.95;18.15;;;;;;;;;;5039136;28;20199;-96
2021/01/10 14:23:58;;;;;;;30.00;20.50;;;;;;;;;;5282015;23;20231;-96
2021/01/10 14:26:50;;;;;;;37.77;24.33;;;;;;;;;;5050953;23;20505;-96
2021/01/10 14:29:18;;;;;;;26.20;19.83;;;;;;;;;;5006850;28;20447;-96
2021/01/10 14:31:44;;;;;;;34.03;21.63;;;;;;;;;;5014575;28;20181;-95
2021/01/10 14:36:58;;;;;;;27.13;19.40;;;;;;;;;;5383845;23;20511;-96
2021/01/10 14:39:32;;;;;;;28.05;20.55;;;;;;;;;;5016895;28;20479;-96
2021/01/10 14:41:58;;;;;;;24.57;17.77;;;;;;;;;;5010464;28;20209;-96
2021/01/10 14:44:38;;;;;;;31.42;20.33;;;;;;;;;;5009724;28;20527;-96
2021/01/10 14:47:06;;;;;;;32.92;21.88;;;;;;;;;;5015639;28;20234;-96
2021/01/10 14:52:36;;;;;;;29.25;18.13;;;;;;;;;;5027525;23;20483;-96
2021/01/10 14:58:17;;;;;;;28.67;20.58;;;;;;;;;;5044864;23;20160;-96
2021/01/10 15:09:01;;;;;;;36.60;27.17;;;;;;;;;;5646286;23;20275;-96
2021/01/10 15:11:28;;;;;;;36.53;25.13;;;;;;;;;;5004096;28;20218;-96
2021/01/10 15:13:55;;;;;;;37.43;26.17;;;;;;;;;;5001480;28;20479;-95
2021/01/10 15:16:21;;;;;;;32.72;24.48;;;;;;;;;;4999956;28;20471;-95
2021/01/10 15:18:47;;;;;;;34.63;23.83;;;;;;;;;;5001049;28;20205;-95
2021/01/10 15:21:14;;;;;;;29.20;21.70;;;;;;;;;;4999218;28;20216;-95
2021/01/10 15:23:40;;;;;;;28.30;20.90;;;;;;;;;;5002787;28;20205;-94
2021/01/10 15:26:07;;;;;;;26.33;18.90;;;;;;;;;;5001270;28;20303;-94
2021/01/10 15:28:33;;;;;;;33.40;21.60;;;;;;;;;;5002649;28;20460;-94
2021/01/10 15:31:00;;;;;;;27.65;21.45;;;;;;;;;;4999459;28;20205;-95
2021/01/10 15:33:26;;;;;;;32.27;21.40;;;;;;;;;;4997930;28;20232;-94
2021/01/10 15:35:52;;;;;;;33.57;24.40;;;;;;;;;;4992823;28;21411;-93
2021/01/10 15:38:18;;;;;;;35.20;25.70;;;;;;;;;;4995995;28;20459;-94